sensor_id;sensor_type;location;lat;lon;timestamp;P1;durP1;ratioP1;P2;durP2;ratioP2
21777;SDS011;11050;52.222;20.916;2022-12-29T00:01:36;10.67;;;6.00;;
21777;SDS011;11050;52.222;20.916;2022-12-29T00:04:02;10.30;;;5.47;;
21777;SDS011;11050;52.222;20.916;2022-12-29T00:06:30;13.73;;;6.70;;
21777;SDS011;11050;52.222;20.916;2022-12-29T00:08:55;11.17;;;6.17;;
21777;SDS011;11050;52.222;20.916;2022-12-29T00:11:22;11.93;;;6.30;;
21777;SDS011;11050;52.222;20.916;2022-12-29T00:13:51;10.80;;;5.83;;
21777;SDS011;11050;52.222;20.916;2022-12-29T00:16:37;11.47;;;6.07;;
21777;SDS011;11050;52.222;20.916;2022-12-29T00:19:07;12.83;;;6.20;;
21777;SDS011;11050;52.222;20.916;2022-12-29T00:21:53;13.07;;;6.57;;
21777;SDS011;11050;52.222;20.916;2022-12-29T00:24:38;10.77;;;5.90;;
21777;SDS011;11050;52.222;20.916;2022-12-29T00:27:22;13.00;;;6.93;;
21777;SDS011;11050;52.222;20.916;2022-12-29T00:30:10;11.53;;;6.43;;
21777;SDS011;11050;52.222;20.916;2022-12-29T00:32:57;10.87;;;5.73;;
21777;SDS011;11050;52.222;20.916;2022-12-29T00:35:51;10.07;;;6.10;;
21777;SDS011;11050;52.222;20.916;2022-12-29T00:38:24;13.10;;;6.23;;
21777;SDS011;11050;52.222;20.916;2022-12-29T00:41:10;10.37;;;6.10;;
21777;SDS011;11050;52.222;20.916;2022-12-29T00:43:54;13.07;;;6.97;;
21777;SDS011;11050;52.222;20.916;2022-12-29T00:46:32;10.70;;;5.70;;
21777;SDS011;11050;52.222;20.916;2022-12-29T00:49:00;9.83;;;5.47;;
21777;SDS011;11050;52.222;20.916;2022-12-29T00:51:45;11.63;;;5.73;;
21777;SDS011;11050;52.222;20.916;2022-12-29T00:54:12;12.73;;;5.83;;
21777;SDS011;11050;52.222;20.916;2022-12-29T00:56:39;9.33;;;5.40;;
21777;SDS011;11050;52.222;20.916;2022-12-29T00:59:06;10.27;;;5.40;;
21777;SDS011;11050;52.222;20.916;2022-12-29T01:01:35;12.73;;;5.90;;
21777;SDS011;11050;52.222;20.916;2022-12-29T01:04:02;9.60;;;4.87;;
21777;SDS011;11050;52.222;20.916;2022-12-29T01:06:29;10.00;;;4.90;;
21777;SDS011;11050;52.222;20.916;2022-12-29T01:08:56;10.13;;;5.40;;
21777;SDS011;11050;52.222;20.916;2022-12-29T01:11:40;8.80;;;4.63;;
21777;SDS011;11050;52.222;20.916;2022-12-29T01:14:06;10.10;;;5.60;;
21777;SDS011;11050;52.222;20.916;2022-12-29T01:16:32;10.00;;;4.73;;
21777;SDS011;11050;52.222;20.916;2022-12-29T01:18:59;10.53;;;5.33;;
21777;SDS011;11050;52.222;20.916;2022-12-29T01:21:25;7.90;;;4.33;;
21777;SDS011;11050;52.222;20.916;2022-12-29T01:23:50;11.57;;;4.83;;
21777;SDS011;11050;52.222;20.916;2022-12-29T01:26:16;8.93;;;4.87;;
21777;SDS011;11050;52.222;20.916;2022-12-29T01:28:43;8.40;;;4.73;;
21777;SDS011;11050;52.222;20.916;2022-12-29T01:31:09;7.57;;;4.67;;
21777;SDS011;11050;52.222;20.916;2022-12-29T01:33:37;9.40;;;5.00;;
21777;SDS011;11050;52.222;20.916;2022-12-29T01:36:04;11.37;;;5.33;;
21777;SDS011;11050;52.222;20.916;2022-12-29T01:38:33;9.93;;;4.90;;
21777;SDS011;11050;52.222;20.916;2022-12-29T01:41:01;9.20;;;4.80;;
21777;SDS011;11050;52.222;20.916;2022-12-29T01:46:28;8.93;;;4.70;;
21777;SDS011;11050;52.222;20.916;2022-12-29T01:49:17;9.60;;;4.97;;
21777;SDS011;11050;52.222;20.916;2022-12-29T01:51:52;8.50;;;4.73;;
21777;SDS011;11050;52.222;20.916;2022-12-29T01:54:26;7.57;;;4.53;;
21777;SDS011;11050;52.222;20.916;2022-12-29T01:56:55;7.30;;;4.67;;
21777;SDS011;11050;52.222;20.916;2022-12-29T01:59:31;10.97;;;5.00;;
21777;SDS011;11050;52.222;20.916;2022-12-29T02:02:04;12.90;;;5.50;;
21777;SDS011;11050;52.222;20.916;2022-12-29T02:04:32;8.13;;;4.90;;
21777;SDS011;11050;52.222;20.916;2022-12-29T02:07:00;9.37;;;4.77;;
21777;SDS011;11050;52.222;20.916;2022-12-29T02:09:31;6.87;;;4.60;;
21777;SDS011;11050;52.222;20.916;2022-12-29T02:11:57;7.40;;;4.63;;
21777;SDS011;11050;52.222;20.916;2022-12-29T02:14:24;8.50;;;4.60;;
21777;SDS011;11050;52.222;20.916;2022-12-29T02:22:32;9.17;;;5.10;;
21777;SDS011;11050;52.222;20.916;2022-12-29T02:25:28;10.67;;;4.47;;
21777;SDS011;11050;52.222;20.916;2022-12-29T02:37:09;13.80;;;5.07;;
21777;SDS011;11050;52.222;20.916;2022-12-29T02:45:53;8.43;;;4.30;;
21777;SDS011;11050;52.222;20.916;2022-12-29T02:49:25;9.63;;;4.33;;
21777;SDS011;11050;52.222;20.916;2022-12-29T02:54:23;9.47;;;4.80;;
21777;SDS011;11050;52.222;20.916;2022-12-29T02:57:11;9.17;;;4.50;;
21777;SDS011;11050;52.222;20.916;2022-12-29T03:02:57;8.43;;;4.33;;
21777;SDS011;11050;52.222;20.916;2022-12-29T03:06:11;7.77;;;4.30;;
21777;SDS011;11050;52.222;20.916;2022-12-29T03:11:47;9.63;;;4.40;;
21777;SDS011;11050;52.222;20.916;2022-12-29T03:17:54;10.13;;;4.30;;
21777;SDS011;11050;52.222;20.916;2022-12-29T03:23:36;7.90;;;4.30;;
21777;SDS011;11050;52.222;20.916;2022-12-29T03:26:08;7.50;;;4.30;;
21777;SDS011;11050;52.222;20.916;2022-12-29T03:28:42;7.83;;;4.50;;
21777;SDS011;11050;52.222;20.916;2022-12-29T03:31:17;8.00;;;4.40;;
21777;SDS011;11050;52.222;20.916;2022-12-29T03:33:46;8.53;;;4.27;;
21777;SDS011;11050;52.222;20.916;2022-12-29T03:36:19;7.83;;;4.30;;
21777;SDS011;11050;52.222;20.916;2022-12-29T03:39:02;8.10;;;4.33;;
21777;SDS011;11050;52.222;20.916;2022-12-29T03:41:40;9.23;;;4.90;;
21777;SDS011;11050;52.222;20.916;2022-12-29T03:44:10;8.87;;;4.50;;
21777;SDS011;11050;52.222;20.916;2022-12-29T03:46:37;6.53;;;3.90;;
21777;SDS011;11050;52.222;20.916;2022-12-29T03:49:03;7.80;;;4.63;;
21777;SDS011;11050;52.222;20.916;2022-12-29T03:51:29;6.43;;;4.20;;
21777;SDS011;11050;52.222;20.916;2022-12-29T03:53:55;9.73;;;4.80;;
21777;SDS011;11050;52.222;20.916;2022-12-29T03:56:20;8.90;;;4.70;;
21777;SDS011;11050;52.222;20.916;2022-12-29T03:58:46;8.50;;;4.50;;
21777;SDS011;11050;52.222;20.916;2022-12-29T04:01:12;7.33;;;4.13;;
21777;SDS011;11050;52.222;20.916;2022-12-29T04:03:37;7.37;;;4.07;;
21777;SDS011;11050;52.222;20.916;2022-12-29T04:06:03;10.63;;;4.60;;
21777;SDS011;11050;52.222;20.916;2022-12-29T04:08:29;7.93;;;4.40;;
21777;SDS011;11050;52.222;20.916;2022-12-29T04:10:55;7.97;;;4.50;;
21777;SDS011;11050;52.222;20.916;2022-12-29T04:13:20;10.07;;;4.97;;
21777;SDS011;11050;52.222;20.916;2022-12-29T04:15:46;7.10;;;4.30;;
21777;SDS011;11050;52.222;20.916;2022-12-29T04:18:12;7.50;;;4.77;;
21777;SDS011;11050;52.222;20.916;2022-12-29T04:20:38;8.40;;;4.23;;
21777;SDS011;11050;52.222;20.916;2022-12-29T04:23:22;8.30;;;4.83;;
21777;SDS011;11050;52.222;20.916;2022-12-29T04:25:48;10.23;;;4.70;;
21777;SDS011;11050;52.222;20.916;2022-12-29T04:28:14;8.40;;;4.50;;
21777;SDS011;11050;52.222;20.916;2022-12-29T04:30:42;9.23;;;4.80;;
21777;SDS011;11050;52.222;20.916;2022-12-29T04:33:09;10.83;;;4.67;;
21777;SDS011;11050;52.222;20.916;2022-12-29T04:35:35;8.10;;;4.60;;
21777;SDS011;11050;52.222;20.916;2022-12-29T04:38:01;9.73;;;5.23;;
21777;SDS011;11050;52.222;20.916;2022-12-29T04:40:27;10.50;;;5.13;;
21777;SDS011;11050;52.222;20.916;2022-12-29T04:42:53;13.67;;;5.63;;
21777;SDS011;11050;52.222;20.916;2022-12-29T04:45:19;13.57;;;5.80;;
21777;SDS011;11050;52.222;20.916;2022-12-29T04:47:45;12.20;;;5.93;;
21777;SDS011;11050;52.222;20.916;2022-12-29T04:50:11;14.43;;;5.87;;
21777;SDS011;11050;52.222;20.916;2022-12-29T04:52:37;11.30;;;6.00;;
21777;SDS011;11050;52.222;20.916;2022-12-29T04:55:03;11.90;;;6.10;;
21777;SDS011;11050;52.222;20.916;2022-12-29T04:57:30;12.67;;;5.27;;
21777;SDS011;11050;52.222;20.916;2022-12-29T04:59:56;10.90;;;5.57;;
21777;SDS011;11050;52.222;20.916;2022-12-29T05:02:21;12.30;;;6.10;;
21777;SDS011;11050;52.222;20.916;2022-12-29T05:04:48;12.83;;;5.73;;
21777;SDS011;11050;52.222;20.916;2022-12-29T05:07:13;10.50;;;5.53;;
21777;SDS011;11050;52.222;20.916;2022-12-29T05:09:39;14.70;;;6.30;;
21777;SDS011;11050;52.222;20.916;2022-12-29T05:12:05;11.63;;;5.87;;
21777;SDS011;11050;52.222;20.916;2022-12-29T05:14:31;15.20;;;6.60;;
21777;SDS011;11050;52.222;20.916;2022-12-29T05:16:57;16.17;;;6.27;;
21777;SDS011;11050;52.222;20.916;2022-12-29T05:19:22;12.93;;;6.20;;
21777;SDS011;11050;52.222;20.916;2022-12-29T05:21:48;14.83;;;6.23;;
21777;SDS011;11050;52.222;20.916;2022-12-29T05:24:13;11.10;;;6.40;;
21777;SDS011;11050;52.222;20.916;2022-12-29T05:26:40;15.07;;;6.37;;
21777;SDS011;11050;52.222;20.916;2022-12-29T05:29:06;12.30;;;6.37;;
21777;SDS011;11050;52.222;20.916;2022-12-29T05:31:32;13.37;;;6.60;;
21777;SDS011;11050;52.222;20.916;2022-12-29T05:34:00;14.13;;;6.53;;
21777;SDS011;11050;52.222;20.916;2022-12-29T05:36:27;16.00;;;7.13;;
21777;SDS011;11050;52.222;20.916;2022-12-29T05:38:52;11.07;;;6.63;;
21777;SDS011;11050;52.222;20.916;2022-12-29T05:41:18;15.70;;;7.33;;
21777;SDS011;11050;52.222;20.916;2022-12-29T05:43:44;10.97;;;6.00;;
21777;SDS011;11050;52.222;20.916;2022-12-29T05:46:09;13.37;;;6.00;;
21777;SDS011;11050;52.222;20.916;2022-12-29T05:48:36;9.40;;;5.43;;
21777;SDS011;11050;52.222;20.916;2022-12-29T05:51:01;14.00;;;7.00;;
21777;SDS011;11050;52.222;20.916;2022-12-29T05:53:27;13.03;;;6.37;;
21777;SDS011;11050;52.222;20.916;2022-12-29T05:55:53;13.27;;;6.17;;
21777;SDS011;11050;52.222;20.916;2022-12-29T05:58:18;14.73;;;6.37;;
21777;SDS011;11050;52.222;20.916;2022-12-29T06:00:44;15.10;;;6.53;;
21777;SDS011;11050;52.222;20.916;2022-12-29T06:03:10;14.97;;;6.43;;
21777;SDS011;11050;52.222;20.916;2022-12-29T06:05:36;15.43;;;7.07;;
21777;SDS011;11050;52.222;20.916;2022-12-29T06:08:02;14.83;;;6.80;;
21777;SDS011;11050;52.222;20.916;2022-12-29T06:10:28;13.73;;;6.70;;
21777;SDS011;11050;52.222;20.916;2022-12-29T06:12:54;13.37;;;6.33;;
21777;SDS011;11050;52.222;20.916;2022-12-29T06:15:19;12.70;;;6.37;;
21777;SDS011;11050;52.222;20.916;2022-12-29T06:17:45;14.80;;;6.43;;
21777;SDS011;11050;52.222;20.916;2022-12-29T06:20:11;15.17;;;6.80;;
21777;SDS011;11050;52.222;20.916;2022-12-29T06:22:37;14.63;;;6.30;;
21777;SDS011;11050;52.222;20.916;2022-12-29T06:25:03;11.57;;;6.03;;
21777;SDS011;11050;52.222;20.916;2022-12-29T06:27:30;11.57;;;5.93;;
21777;SDS011;11050;52.222;20.916;2022-12-29T06:29:56;12.27;;;6.10;;
21777;SDS011;11050;52.222;20.916;2022-12-29T06:32:21;12.50;;;6.17;;
21777;SDS011;11050;52.222;20.916;2022-12-29T06:34:47;13.77;;;5.57;;
21777;SDS011;11050;52.222;20.916;2022-12-29T06:37:13;12.23;;;5.33;;
21777;SDS011;11050;52.222;20.916;2022-12-29T06:39:39;11.77;;;6.23;;
21777;SDS011;11050;52.222;20.916;2022-12-29T06:42:05;12.27;;;6.30;;
21777;SDS011;11050;52.222;20.916;2022-12-29T06:44:31;13.73;;;6.37;;
21777;SDS011;11050;52.222;20.916;2022-12-29T06:46:57;12.73;;;5.50;;
21777;SDS011;11050;52.222;20.916;2022-12-29T06:49:22;14.43;;;6.43;;
21777;SDS011;11050;52.222;20.916;2022-12-29T06:51:48;12.53;;;6.00;;
21777;SDS011;11050;52.222;20.916;2022-12-29T06:54:14;10.73;;;5.40;;
21777;SDS011;11050;52.222;20.916;2022-12-29T06:56:40;13.77;;;6.00;;
21777;SDS011;11050;52.222;20.916;2022-12-29T06:59:05;10.17;;;5.50;;
21777;SDS011;11050;52.222;20.916;2022-12-29T07:01:32;9.43;;;5.37;;
21777;SDS011;11050;52.222;20.916;2022-12-29T07:03:57;11.83;;;5.27;;
21777;SDS011;11050;52.222;20.916;2022-12-29T07:06:23;11.70;;;5.80;;
21777;SDS011;11050;52.222;20.916;2022-12-29T07:08:49;12.70;;;5.73;;
21777;SDS011;11050;52.222;20.916;2022-12-29T07:11:15;11.43;;;5.53;;
21777;SDS011;11050;52.222;20.916;2022-12-29T07:13:40;12.30;;;6.20;;
21777;SDS011;11050;52.222;20.916;2022-12-29T07:16:09;14.13;;;5.93;;
21777;SDS011;11050;52.222;20.916;2022-12-29T07:18:35;10.20;;;6.13;;
21777;SDS011;11050;52.222;20.916;2022-12-29T07:21:01;10.87;;;6.50;;
21777;SDS011;11050;52.222;20.916;2022-12-29T07:23:28;11.20;;;5.57;;
21777;SDS011;11050;52.222;20.916;2022-12-29T07:26:00;9.63;;;5.20;;
21777;SDS011;11050;52.222;20.916;2022-12-29T07:28:28;10.97;;;5.23;;
21777;SDS011;11050;52.222;20.916;2022-12-29T07:30:54;10.97;;;5.10;;
21777;SDS011;11050;52.222;20.916;2022-12-29T07:33:20;10.27;;;5.47;;
21777;SDS011;11050;52.222;20.916;2022-12-29T07:35:46;7.87;;;4.93;;
21777;SDS011;11050;52.222;20.916;2022-12-29T07:38:12;9.20;;;4.70;;
21777;SDS011;11050;52.222;20.916;2022-12-29T07:40:37;9.43;;;4.93;;
21777;SDS011;11050;52.222;20.916;2022-12-29T07:43:03;9.50;;;4.73;;
21777;SDS011;11050;52.222;20.916;2022-12-29T07:45:29;8.57;;;4.83;;
21777;SDS011;11050;52.222;20.916;2022-12-29T07:47:55;9.33;;;4.63;;
21777;SDS011;11050;52.222;20.916;2022-12-29T07:50:21;11.20;;;5.30;;
21777;SDS011;11050;52.222;20.916;2022-12-29T07:52:46;9.70;;;5.20;;
21777;SDS011;11050;52.222;20.916;2022-12-29T07:55:13;9.53;;;4.80;;
21777;SDS011;11050;52.222;20.916;2022-12-29T07:57:40;8.20;;;4.37;;
21777;SDS011;11050;52.222;20.916;2022-12-29T08:00:06;11.53;;;5.27;;
21777;SDS011;11050;52.222;20.916;2022-12-29T08:02:34;9.07;;;4.87;;
21777;SDS011;11050;52.222;20.916;2022-12-29T08:05:00;9.40;;;4.67;;
21777;SDS011;11050;52.222;20.916;2022-12-29T08:07:26;12.13;;;4.97;;
21777;SDS011;11050;52.222;20.916;2022-12-29T08:09:52;11.70;;;5.20;;
21777;SDS011;11050;52.222;20.916;2022-12-29T08:12:18;9.47;;;5.17;;
21777;SDS011;11050;52.222;20.916;2022-12-29T08:14:44;10.27;;;5.27;;
21777;SDS011;11050;52.222;20.916;2022-12-29T08:17:10;9.83;;;5.37;;
21777;SDS011;11050;52.222;20.916;2022-12-29T08:19:35;9.70;;;5.23;;
21777;SDS011;11050;52.222;20.916;2022-12-29T08:22:02;14.87;;;5.23;;
21777;SDS011;11050;52.222;20.916;2022-12-29T08:24:28;8.67;;;4.83;;
21777;SDS011;11050;52.222;20.916;2022-12-29T08:26:53;8.50;;;4.90;;
21777;SDS011;11050;52.222;20.916;2022-12-29T08:29:19;9.73;;;5.23;;
21777;SDS011;11050;52.222;20.916;2022-12-29T08:31:46;8.37;;;4.60;;
21777;SDS011;11050;52.222;20.916;2022-12-29T08:34:12;8.20;;;4.47;;
21777;SDS011;11050;52.222;20.916;2022-12-29T08:36:38;7.90;;;4.10;;
21777;SDS011;11050;52.222;20.916;2022-12-29T08:39:04;8.53;;;4.40;;
21777;SDS011;11050;52.222;20.916;2022-12-29T08:41:30;9.83;;;4.83;;
21777;SDS011;11050;52.222;20.916;2022-12-29T08:43:56;9.13;;;5.23;;
21777;SDS011;11050;52.222;20.916;2022-12-29T08:46:22;7.50;;;4.47;;
21777;SDS011;11050;52.222;20.916;2022-12-29T08:48:47;9.80;;;5.10;;
21777;SDS011;11050;52.222;20.916;2022-12-29T08:51:13;8.67;;;4.77;;
21777;SDS011;11050;52.222;20.916;2022-12-29T08:53:39;10.10;;;4.93;;
21777;SDS011;11050;52.222;20.916;2022-12-29T08:56:05;9.77;;;4.97;;
21777;SDS011;11050;52.222;20.916;2022-12-29T08:58:31;10.10;;;5.10;;
21777;SDS011;11050;52.222;20.916;2022-12-29T09:00:58;10.23;;;4.77;;
21777;SDS011;11050;52.222;20.916;2022-12-29T09:03:24;11.40;;;5.63;;
21777;SDS011;11050;52.222;20.916;2022-12-29T09:05:50;11.47;;;5.07;;
21777;SDS011;11050;52.222;20.916;2022-12-29T09:08:18;10.43;;;5.03;;
21777;SDS011;11050;52.222;20.916;2022-12-29T09:10:44;8.63;;;5.17;;
21777;SDS011;11050;52.222;20.916;2022-12-29T09:13:11;10.17;;;5.10;;
21777;SDS011;11050;52.222;20.916;2022-12-29T09:15:38;8.40;;;5.03;;
21777;SDS011;11050;52.222;20.916;2022-12-29T09:18:05;12.97;;;5.73;;
21777;SDS011;11050;52.222;20.916;2022-12-29T09:20:32;12.30;;;6.13;;
21777;SDS011;11050;52.222;20.916;2022-12-29T09:22:59;10.23;;;5.27;;
21777;SDS011;11050;52.222;20.916;2022-12-29T09:25:25;11.37;;;5.47;;
21777;SDS011;11050;52.222;20.916;2022-12-29T09:27:51;9.07;;;4.80;;
21777;SDS011;11050;52.222;20.916;2022-12-29T09:30:18;10.23;;;4.73;;
21777;SDS011;11050;52.222;20.916;2022-12-29T09:32:46;9.90;;;4.73;;
21777;SDS011;11050;52.222;20.916;2022-12-29T09:35:13;10.07;;;4.77;;
21777;SDS011;11050;52.222;20.916;2022-12-29T09:37:41;7.90;;;5.13;;
21777;SDS011;11050;52.222;20.916;2022-12-29T09:40:15;8.33;;;4.37;;
21777;SDS011;11050;52.222;20.916;2022-12-29T09:45:57;7.40;;;4.37;;
21777;SDS011;11050;52.222;20.916;2022-12-29T09:48:44;6.60;;;4.10;;
21777;SDS011;11050;52.222;20.916;2022-12-29T09:51:21;10.47;;;4.90;;
21777;SDS011;11050;52.222;20.916;2022-12-29T09:53:51;8.33;;;4.57;;
21777;SDS011;11050;52.222;20.916;2022-12-29T09:56:25;9.13;;;4.87;;
21777;SDS011;11050;52.222;20.916;2022-12-29T09:59:00;9.93;;;5.17;;
21777;SDS011;11050;52.222;20.916;2022-12-29T10:01:41;14.37;;;5.00;;
21777;SDS011;11050;52.222;20.916;2022-12-29T10:04:18;9.23;;;4.63;;
21777;SDS011;11050;52.222;20.916;2022-12-29T10:06:57;9.63;;;4.90;;
21777;SDS011;11050;52.222;20.916;2022-12-29T10:12:57;8.50;;;4.73;;
21777;SDS011;11050;52.222;20.916;2022-12-29T10:18:38;13.60;;;5.80;;
21777;SDS011;11050;52.222;20.916;2022-12-29T10:24:29;10.50;;;5.77;;
21777;SDS011;11050;52.222;20.916;2022-12-29T10:26:59;9.33;;;4.57;;
21777;SDS011;11050;52.222;20.916;2022-12-29T10:29:29;10.93;;;4.67;;
21777;SDS011;11050;52.222;20.916;2022-12-29T10:32:09;12.43;;;5.27;;
21777;SDS011;11050;52.222;20.916;2022-12-29T10:34:56;9.43;;;4.77;;
21777;SDS011;11050;52.222;20.916;2022-12-29T10:43:24;10.97;;;5.40;;
21777;SDS011;11050;52.222;20.916;2022-12-29T10:45:54;9.23;;;4.67;;
21777;SDS011;11050;52.222;20.916;2022-12-29T10:48:28;11.53;;;4.70;;
21777;SDS011;11050;52.222;20.916;2022-12-29T10:51:00;9.90;;;5.20;;
21777;SDS011;11050;52.222;20.916;2022-12-29T10:53:33;9.00;;;5.53;;
21777;SDS011;11050;52.222;20.916;2022-12-29T10:58:58;8.80;;;5.57;;
21777;SDS011;11050;52.222;20.916;2022-12-29T11:01:41;8.93;;;5.23;;
21777;SDS011;11050;52.222;20.916;2022-12-29T11:05:09;9.97;;;5.13;;
21777;SDS011;11050;52.222;20.916;2022-12-29T11:08:01;9.80;;;4.83;;
21777;SDS011;11050;52.222;20.916;2022-12-29T11:10:38;8.37;;;5.00;;
21777;SDS011;11050;52.222;20.916;2022-12-29T11:13:14;8.60;;;4.87;;
21777;SDS011;11050;52.222;20.916;2022-12-29T11:15:51;8.57;;;4.97;;
21777;SDS011;11050;52.222;20.916;2022-12-29T11:20:57;11.97;;;5.23;;
21777;SDS011;11050;52.222;20.916;2022-12-29T11:26:21;7.43;;;4.80;;
21777;SDS011;11050;52.222;20.916;2022-12-29T11:31:39;10.00;;;4.90;;
21777;SDS011;11050;52.222;20.916;2022-12-29T11:34:17;9.77;;;4.67;;
21777;SDS011;11050;52.222;20.916;2022-12-29T11:36:51;8.63;;;5.20;;
21777;SDS011;11050;52.222;20.916;2022-12-29T11:45:33;9.93;;;4.60;;
21777;SDS011;11050;52.222;20.916;2022-12-29T11:48:08;9.33;;;5.30;;
21777;SDS011;11050;52.222;20.916;2022-12-29T11:50:48;9.77;;;5.50;;
21777;SDS011;11050;52.222;20.916;2022-12-29T11:53:24;11.80;;;5.83;;
21777;SDS011;11050;52.222;20.916;2022-12-29T11:56:00;14.70;;;6.03;;
21777;SDS011;11050;52.222;20.916;2022-12-29T11:58:34;9.67;;;5.33;;
21777;SDS011;11050;52.222;20.916;2022-12-29T12:01:32;14.00;;;6.10;;
21777;SDS011;11050;52.222;20.916;2022-12-29T12:04:08;9.20;;;5.87;;
21777;SDS011;11050;52.222;20.916;2022-12-29T12:06:47;11.53;;;5.63;;
21777;SDS011;11050;52.222;20.916;2022-12-29T12:09:45;11.10;;;5.77;;
21777;SDS011;11050;52.222;20.916;2022-12-29T12:12:28;9.53;;;5.37;;
21777;SDS011;11050;52.222;20.916;2022-12-29T12:15:05;11.03;;;5.20;;
21777;SDS011;11050;52.222;20.916;2022-12-29T12:17:52;9.60;;;4.90;;
21777;SDS011;11050;52.222;20.916;2022-12-29T12:26:30;10.10;;;5.97;;
21777;SDS011;11050;52.222;20.916;2022-12-29T12:38:20;10.37;;;5.70;;
21777;SDS011;11050;52.222;20.916;2022-12-29T12:41:24;10.13;;;5.50;;
21777;SDS011;11050;52.222;20.916;2022-12-29T12:44:24;10.80;;;5.10;;
21777;SDS011;11050;52.222;20.916;2022-12-29T12:47:23;13.00;;;5.47;;
21777;SDS011;11050;52.222;20.916;2022-12-29T12:50:18;8.90;;;5.13;;
21777;SDS011;11050;52.222;20.916;2022-12-29T12:56:08;8.57;;;4.73;;
21777;SDS011;11050;52.222;20.916;2022-12-29T12:59:16;9.97;;;5.20;;
21777;SDS011;11050;52.222;20.916;2022-12-29T13:14:02;11.17;;;5.33;;
21777;SDS011;11050;52.222;20.916;2022-12-29T13:16:58;9.53;;;4.97;;
21777;SDS011;11050;52.222;20.916;2022-12-29T13:19:51;8.43;;;5.17;;
21777;SDS011;11050;52.222;20.916;2022-12-29T13:25:14;17.07;;;6.00;;
21777;SDS011;11050;52.222;20.916;2022-12-29T13:27:53;15.13;;;5.60;;
21777;SDS011;11050;52.222;20.916;2022-12-29T13:38:48;11.97;;;6.20;;
21777;SDS011;11050;52.222;20.916;2022-12-29T13:41:41;9.27;;;5.27;;
21777;SDS011;11050;52.222;20.916;2022-12-29T13:44:16;11.33;;;5.43;;
21777;SDS011;11050;52.222;20.916;2022-12-29T13:46:49;10.13;;;5.13;;
21777;SDS011;11050;52.222;20.916;2022-12-29T13:49:18;8.33;;;5.13;;
21777;SDS011;11050;52.222;20.916;2022-12-29T13:51:57;8.07;;;5.00;;
21777;SDS011;11050;52.222;20.916;2022-12-29T13:54:42;9.37;;;4.87;;
21777;SDS011;11050;52.222;20.916;2022-12-29T14:00:26;11.80;;;5.90;;
21777;SDS011;11050;52.222;20.916;2022-12-29T14:03:14;10.67;;;5.47;;
21777;SDS011;11050;52.222;20.916;2022-12-29T14:08:57;9.23;;;5.00;;
21777;SDS011;11050;52.222;20.916;2022-12-29T14:11:30;10.47;;;5.37;;
21777;SDS011;11050;52.222;20.916;2022-12-29T14:14:11;9.97;;;5.67;;
21777;SDS011;11050;52.222;20.916;2022-12-29T14:16:57;10.27;;;5.37;;
21777;SDS011;11050;52.222;20.916;2022-12-29T14:19:37;9.93;;;5.57;;
21777;SDS011;11050;52.222;20.916;2022-12-29T14:22:08;9.13;;;5.67;;
21777;SDS011;11050;52.222;20.916;2022-12-29T14:24:41;10.97;;;5.80;;
21777;SDS011;11050;52.222;20.916;2022-12-29T14:34:52;9.97;;;5.27;;
21777;SDS011;11050;52.222;20.916;2022-12-29T14:38:07;9.20;;;5.63;;
21777;SDS011;11050;52.222;20.916;2022-12-29T14:40:42;12.63;;;5.27;;
21777;SDS011;11050;52.222;20.916;2022-12-29T14:43:17;12.03;;;5.87;;
21777;SDS011;11050;52.222;20.916;2022-12-29T14:45:58;11.77;;;6.30;;
21777;SDS011;11050;52.222;20.916;2022-12-29T14:48:28;12.53;;;5.87;;
21777;SDS011;11050;52.222;20.916;2022-12-29T14:51:01;11.60;;;6.27;;
21777;SDS011;11050;52.222;20.916;2022-12-29T14:53:47;9.77;;;5.20;;
21777;SDS011;11050;52.222;20.916;2022-12-29T14:56:17;8.80;;;5.37;;
21777;SDS011;11050;52.222;20.916;2022-12-29T14:58:51;11.70;;;5.97;;
21777;SDS011;11050;52.222;20.916;2022-12-29T15:04:18;14.80;;;6.17;;
21777;SDS011;11050;52.222;20.916;2022-12-29T15:06:57;11.60;;;5.90;;
21777;SDS011;11050;52.222;20.916;2022-12-29T15:09:33;11.07;;;6.00;;
21777;SDS011;11050;52.222;20.916;2022-12-29T15:14:52;11.10;;;6.27;;
21777;SDS011;11050;52.222;20.916;2022-12-29T15:17:25;12.37;;;6.67;;
21777;SDS011;11050;52.222;20.916;2022-12-29T15:19:59;10.90;;;6.67;;
21777;SDS011;11050;52.222;20.916;2022-12-29T15:22:49;9.80;;;5.97;;
21777;SDS011;11050;52.222;20.916;2022-12-29T15:25:21;12.27;;;6.93;;
21777;SDS011;11050;52.222;20.916;2022-12-29T15:27:55;9.93;;;5.90;;
21777;SDS011;11050;52.222;20.916;2022-12-29T15:30:27;12.97;;;6.60;;
21777;SDS011;11050;52.222;20.916;2022-12-29T15:32:53;15.90;;;7.93;;
21777;SDS011;11050;52.222;20.916;2022-12-29T15:35:26;11.70;;;6.97;;
21777;SDS011;11050;52.222;20.916;2022-12-29T15:38:13;11.30;;;6.30;;
21777;SDS011;11050;52.222;20.916;2022-12-29T15:40:43;10.57;;;6.50;;
21777;SDS011;11050;52.222;20.916;2022-12-29T15:46:00;11.20;;;5.97;;
21777;SDS011;11050;52.222;20.916;2022-12-29T15:48:27;10.97;;;6.70;;
21777;SDS011;11050;52.222;20.916;2022-12-29T15:50:54;11.73;;;6.67;;
21777;SDS011;11050;52.222;20.916;2022-12-29T15:53:21;12.20;;;6.53;;
21777;SDS011;11050;52.222;20.916;2022-12-29T15:55:53;10.03;;;6.40;;
21777;SDS011;11050;52.222;20.916;2022-12-29T15:58:42;10.70;;;6.30;;
21777;SDS011;11050;52.222;20.916;2022-12-29T16:01:27;14.73;;;6.67;;
21777;SDS011;11050;52.222;20.916;2022-12-29T16:03:58;12.17;;;6.50;;
21777;SDS011;11050;52.222;20.916;2022-12-29T16:06:34;12.57;;;6.20;;
21777;SDS011;11050;52.222;20.916;2022-12-29T16:09:16;11.70;;;6.57;;
21777;SDS011;11050;52.222;20.916;2022-12-29T16:11:53;12.60;;;6.73;;
21777;SDS011;11050;52.222;20.916;2022-12-29T16:14:30;12.07;;;6.23;;
21777;SDS011;11050;52.222;20.916;2022-12-29T16:17:09;13.00;;;6.43;;
21777;SDS011;11050;52.222;20.916;2022-12-29T16:19:40;13.97;;;6.53;;
21777;SDS011;11050;52.222;20.916;2022-12-29T16:22:17;11.57;;;6.40;;
21777;SDS011;11050;52.222;20.916;2022-12-29T16:24:57;13.70;;;6.90;;
21777;SDS011;11050;52.222;20.916;2022-12-29T16:27:36;15.73;;;6.50;;
21777;SDS011;11050;52.222;20.916;2022-12-29T16:30:16;14.27;;;7.03;;
21777;SDS011;11050;52.222;20.916;2022-12-29T16:32:57;10.77;;;6.20;;
21777;SDS011;11050;52.222;20.916;2022-12-29T16:35:27;12.63;;;6.90;;
21777;SDS011;11050;52.222;20.916;2022-12-29T16:40:59;11.83;;;6.70;;
21777;SDS011;11050;52.222;20.916;2022-12-29T16:43:33;13.87;;;6.77;;
21777;SDS011;11050;52.222;20.916;2022-12-29T16:48:51;13.00;;;6.80;;
21777;SDS011;11050;52.222;20.916;2022-12-29T16:51:28;10.47;;;6.13;;
21777;SDS011;11050;52.222;20.916;2022-12-29T16:53:57;13.30;;;7.30;;
21777;SDS011;11050;52.222;20.916;2022-12-29T16:56:26;15.17;;;7.30;;
21777;SDS011;11050;52.222;20.916;2022-12-29T16:59:04;14.53;;;7.13;;
21777;SDS011;11050;52.222;20.916;2022-12-29T17:01:50;14.00;;;7.23;;
21777;SDS011;11050;52.222;20.916;2022-12-29T17:04:16;12.90;;;7.13;;
21777;SDS011;11050;52.222;20.916;2022-12-29T17:06:42;12.67;;;6.60;;
21777;SDS011;11050;52.222;20.916;2022-12-29T17:09:18;11.07;;;6.53;;
21777;SDS011;11050;52.222;20.916;2022-12-29T17:11:50;11.67;;;6.70;;
21777;SDS011;11050;52.222;20.916;2022-12-29T17:17:29;12.17;;;6.73;;
21777;SDS011;11050;52.222;20.916;2022-12-29T17:20:15;21.27;;;7.17;;
21777;SDS011;11050;52.222;20.916;2022-12-29T17:22:46;14.27;;;7.10;;
21777;SDS011;11050;52.222;20.916;2022-12-29T17:25:15;12.67;;;7.03;;